• Join FlightAware (Why Join?)
  • Login
  • US Flag 
04:36PM EST


 

Airport Tracker/Info


-or-


 

Live Flight TrackerFlight Track Log ✈ UAL33 ✈ 26-Jul-2013 ✈ KIAH - KORD

Flight Track Log - Related Links

Times and Time Zones

All times are in EDT time to prevent confusion due to time zone crossing. See the UAL33 flight status page for this flight to view local times or setup timezone preferences in your user account.

Time Position Orientation Groundspeed Altitude Reporting Facility
EDT Latitude Longitude Course Direction KTS MPH feet Rate Location/Type
05:23PM 29.9814 -95.3539 158° South 7 8 100  Level FlightAware ADS-B
05:23PM 29.9715 -95.3479 152° Southeast 145 167 100 833 Level FlightAware ADS-B
05:23PM 29.9585 -95.3403 153° Southeast 166 191 600 1,826 Climbing FlightAware ADS-B
05:23PM 29.9551 -95.3394 167° South 168 193 800 2,769 Climbing FlightAware ADS-B
05:23PM 29.9487 -95.3401 185° South 167 192 1,200 2,308 Climbing FlightAware ADS-B
05:23PM 29.9458 -95.3415 203° Southwest 171 197 1,300 1,714 Climbing FlightAware ADS-B
05:24PM 29.9433 -95.3433 212° Southwest 177 204 1,400 1,714 Climbing FlightAware ADS-B
05:24PM 29.9410 -95.3458 223° Southwest 181 208 1,500 1,714 Climbing FlightAware ADS-B
05:24PM 29.9393 -95.3481 230° Southwest 188 216 1,600 1,714 Climbing FlightAware ADS-B
05:24PM 29.9375 -95.3517 240° Southwest 193 222 1,700 1,714 Climbing FlightAware ADS-B
05:24PM 29.9365 -95.3548 250° West 200 230 1,800 1,200 Climbing FlightAware ADS-B
05:24PM 29.9355 -95.3625 261° West 212 244 1,900 1,200 Climbing FlightAware ADS-B
05:24PM 29.9356 -95.3660 272° West 217 250 2,000 1,714 Climbing FlightAware ADS-B
05:24PM 29.9364 -95.3710 280° West 225 259 2,100 1,800 Climbing FlightAware ADS-B
05:24PM 29.9383 -95.3768 291° West 232 267 2,300 2,182 Climbing FlightAware ADS-B
05:24PM 29.9418 -95.3834 301° West 244 281 2,500 2,000 Climbing FlightAware ADS-B
05:24PM 29.9441 -95.3864 312° West 251 289 2,600 2,250 Climbing FlightAware ADS-B
05:24PM 29.9476 -95.3901 318° Northwest 257 296 2,800 3,429 Climbing FlightAware ADS-B
05:24PM 29.9514 -95.3932 325° Northwest 262 302 3,000 2,727 Climbing FlightAware ADS-B
05:25PM 29.9597 -95.3979 337° Northwest 273 314 3,300 2,143 Climbing FlightAware ADS-B
05:25PM 29.9671 -95.4001 347° North 276 318 3,500 2,400 Climbing FlightAware ADS-B
05:25PM 29.9722 -95.4010 351° North 278 320 3,700 1,412 Climbing FlightAware ADS-B
05:25PM 29.9892 -95.4031 354° North 280 322 3,900 643 Climbing FlightAware ADS-B
05:25PM 30.0088 -95.4051 355° North 280 322 4,000  Climbing FlightAware ADS-B
05:26PM 30.0488 -95.4093 355° North 280 322 3,900 1,558 Descending FlightAware ADS-B
05:26PM 30.1085 -95.4157 355° North 283 326 6,000 3,097 Climbing FlightAware ADS-B
05:27PM 30.1303 -95.4179 355° North 286 329 7,100 3,857 Climbing FlightAware ADS-B
05:27PM 30.1640 -95.4215 350° North 288 331 8,700 3,677 Climbing FlightAware ADS-B
05:27PM 30.1707 -95.4233 347° North 288 331 9,000 3,474 Climbing FlightAware ADS-B
05:27PM 30.1881 -95.4310 336° Northwest 287 330 9,800 2,717 Climbing FlightAware ADS-B
05:29PM 30.3132 -95.5106 331° Northwest 349 402 13,800 2,880 Climbing FlightAware ADS-B
05:30PM 30.3590 -95.5395 331° Northwest 345 397 15,800 2,884 Climbing FlightAware ADS-B
05:31PM 30.4986 -95.6287 331° Northwest 372 428 20,000 2,500 Climbing FlightAware ADS-B
05:32PM 30.5936 -95.6832 335° Northwest 383 441 22,300 2,440 Climbing FlightAware ADS-B
05:33PM 30.6432 -95.7096 335° Northwest 383 441 23,700 2,459 Climbing FlightAware ADS-B
05:33PM 30.6921 -95.7357 335° Northwest 387 445 24,800 2,022 Climbing FlightAware ADS-B
05:34PM 30.7931 -95.7897 335° Northwest 397 457 26,800 1,839 Climbing FlightAware ADS-B
05:35PM 30.8981 -95.8461 335° Northwest 409 471 28,600 1,761 Climbing FlightAware ADS-B
05:36PM 30.9507 -95.8745 335° Northwest 414 476 29,500 1,600 Climbing FlightAware ADS-B
05:36PM 31.0033 -95.9028 335° Northwest 420 483 30,200 1,487 Climbing FlightAware ADS-B
05:38PM 31.1538 -95.9745 345° North 434 499 32,300 1,448 Climbing FlightAware ADS-B
05:39PM 31.2791 -96.0040 349° North 445 512 33,700 1,215 Climbing FlightAware ADS-B
05:40PM 31.4750 -96.0500 349° North 459 528 35,500 1,095 Climbing FlightAware ADS-B
05:41PM 31.5394 -96.0651 349° North 466 536 36,000 943 Climbing FlightAware ADS-B
05:41PM 31.6238 -96.0849 349° North 472 543 36,600 1,050 Climbing FlightAware ADS-B
05:43PM 31.7960 -96.1250 349° North 474 545 38,100 1,146 Climbing FlightAware
05:43PM 31.8156 -96.1302 347° North 473 544 38,300 450 Climbing FlightAware ADS-B
05:45PM 32.0520 -96.1860 349° North 463 533 39,000 271 Climbing FlightAware
05:45PM 32.1441 -96.2081 349° North 464 534 39,000  Level FlightAware ADS-B
05:46PM 32.1753 -96.2139 351° North 461 531 39,000  Level FlightAware ADS-B
05:47PM 32.3038 -96.2193 360° North 459 528 39,000  Level FlightAware ADS-B
05:48PM 32.4090 -96.2210 359° North 461 531 39,000  Level FlightAware
05:48PM 32.4651 -96.2264 355° North 460 529 39,000  Level FlightAware ADS-B
05:49PM 32.5590 -96.2630 342° North 450 518 39,000  Level FlightAware
05:49PM 32.6410 -96.3010 339° North 452 520 39,000  Level FlightAware
05:50PM 32.7230 -96.3390 339° North 454 522 39,000  Level FlightAware
05:51PM 32.7970 -96.3730 339° North 453 521 39,000  Level FlightAware
05:51PM 32.8750 -96.4090 339° North 450 518 39,000  Level FlightAware
05:52PM 32.9600 -96.4430 341° North 452 520 39,000  Level FlightAware
05:53PM 33.0390 -96.4710 343° North 452 520 39,000  Level FlightAware
05:54PM 33.1260 -96.5010 344° North 455 524 39,000  Level FlightAware
05:54PM 33.2100 -96.5310 343° North 449 517 39,000  Level FlightAware
05:55PM 33.2920 -96.5700 338° Northwest 448 516 39,000  Level FlightAware
05:56PM 33.3680 -96.6110 336° Northwest 449 517 39,000  Level FlightAware
05:56PM 33.4510 -96.6540 337° Northwest 450 518 39,000  Level FlightAware
05:57PM 33.5310 -96.6970 336° Northwest 448 516 39,000  Level FlightAware
05:58PM 33.6030 -96.7430 332° Northwest 447 514 39,000  Level FlightAware
05:58PM 33.6860 -96.7900 335° Northwest 447 514 39,000  Level FlightAware
05:59PM 33.7440 -96.8090 345° North 455 524 39,000  Level FlightAware
05:59PM 33.8010 -96.8000 North 469 540 39,000  Level FlightAware
06:00PM 33.8850 -96.7660 19° North 468 539 39,000  Level FlightAware
06:01PM 33.9730 -96.7310 18° North 470 541 39,000  Level FlightAware
06:02PM 34.0590 -96.6910 21° North 477 549 39,000  Level FlightAware
06:02PM 34.1480 -96.6370 27° Northeast 478 550 39,000  Level FlightAware
06:03PM 34.2110 -96.5970 28° Northeast 480 552 39,000  Level FlightAware
06:03PM 34.2900 -96.5420 30° Northeast 484 557 39,000  Level FlightAware
06:04PM 34.3750 -96.4840 29° Northeast 484 557 39,000  Level FlightAware
06:05PM 34.4450 -96.4350 30° Northeast 483 556 39,000  Level FlightAware
06:05PM 34.5260 -96.3790 30° Northeast 482 555 39,000  Level FlightAware
06:06PM 34.6030 -96.3170 34° Northeast 493 567 39,000  Level FlightAware
06:07PM 34.6810 -96.2540 34° Northeast 487 560 39,000  Level FlightAware
06:08PM 34.7670 -96.1890 32° Northeast 485 558 39,000  Level FlightAware
06:08PM 34.8460 -96.1300 32° Northeast 486 559 39,000  Level FlightAware
06:09PM 34.9240 -96.0720 31° Northeast 486 559 39,000  Level FlightAware
06:10PM 34.9990 -96.0130 33° Northeast 492 566 39,000  Level FlightAware
06:10PM 35.0560 -95.9300 50° Northeast 514 592 39,000  Level FlightAware
06:11PM 35.0920 -95.8060 70° East 530 610 39,000  Level FlightAware
06:12PM 35.1160 -95.6730 78° East 532 612 39,000  Level FlightAware
06:12PM 35.1340 -95.5810 77° East 532 612 39,000  Level FlightAware
06:13PM 35.1630 -95.4230 77° East 39,000  Level FlightAware
06:14PM 35.1920 -95.2670 77° East 528 608 39,000  Level FlightAware
06:15PM 35.2160 -95.1400 77° East 39,000  Level FlightAware
06:16PM 35.2620 -94.8950 77° East 531 611 39,000  Level FlightAware
06:17PM 35.2830 -94.7860 77° East 535 616 39,000  Level FlightAware
06:18PM 35.3070 -94.6610 77° East 534 615 39,000  Level FlightAware
06:18PM 35.3310 -94.5390 76° East 533 613 39,000 136 Level FlightAware
06:19PM 35.3560 -94.4090 77° East 533 613 39,200 593 Climbing FlightAware
06:20PM 35.3780 -94.2980 76° East 532 612 39,800 1,000 Climbing FlightAware
06:20PM 35.4140 -94.1620 72° East 520 598 40,600 818 Climbing FlightAware
06:21PM 35.4650 -94.0640 57° Northeast 512 589 41,000 286 Climbing FlightAware
06:22PM 35.5430 -93.9810 41° Northeast 503 579 41,000  Level FlightAware
06:22PM 35.6170 -93.9140 36° Northeast 502 578 41,000  Level FlightAware
06:23PM 35.6980 -93.8400 37° Northeast 499 574 41,000  Level FlightAware
06:24PM 35.7730 -93.7720 36° Northeast 501 577 41,000  Level FlightAware
06:25PM 35.8550 -93.6970 37° Northeast 502 578 41,000  Level FlightAware
06:25PM 35.9340 -93.6240 37° Northeast 501 577 41,000  Level FlightAware
06:26PM 36.0080 -93.5570 36° Northeast 502 578 41,000  Level FlightAware
06:27PM 36.0830 -93.4880 37° Northeast 501 577 41,000  Level FlightAware
06:27PM 36.1650 -93.4120 37° Northeast 498 573 41,000  Level FlightAware
06:28PM 36.2460 -93.3370 37° Northeast 501 577 41,000  Level FlightAware
06:29PM 36.3260 -93.2740 32° Northeast 490 564 41,000  Level FlightAware
06:29PM 36.4130 -93.2490 13° North 476 548 41,000  Level FlightAware
06:30PM 36.5060 -93.2330 North 476 548 41,000  Level FlightAware
06:31PM 36.5960 -93.2180 North 475 547 41,000  Level FlightAware
06:32PM 36.6940 -93.2020 North 475 547 41,000  Level FlightAware
06:32PM 36.7800 -93.1870 North 476 548 41,000  Level FlightAware
06:33PM 36.8760 -93.1710 North 477 549 41,000  Level FlightAware
06:34PM 36.9640 -93.1560 North 479 551 41,000  Level FlightAware
06:34PM 37.0600 -93.1390 North 481 554 41,000  Level FlightAware
06:35PM 37.1490 -93.1240 North 482 555 41,000  Level FlightAware
06:36PM 37.2460 -93.1080 North 484 557 41,000  Level FlightAware
06:37PM 37.3440 -93.0910 North 486 559 41,000  Level FlightAware
06:37PM 37.4330 -93.0750 North 488 562 41,000  Level FlightAware
06:38PM 37.5330 -93.0580 North 489 563 41,000  Level FlightAware
06:39PM 37.6260 -93.0420 North 489 563 41,000  Level FlightAware
06:39PM 37.7160 -93.0260 North 488 562 41,000  Level FlightAware
06:40PM 37.8140 -93.0090 North 489 563 41,000  Level FlightAware
06:41PM 37.9050 -92.9930 North 490 564 41,000  Level FlightAware
06:41PM 37.9940 -92.9780 North 493 567 41,000  Level FlightAware
06:42PM 38.0700 -92.9650 North 494 568 41,000  Level FlightAware
06:43PM 38.1680 -92.9470 North 493 567 41,000  Level FlightAware
06:43PM 38.2540 -92.9320 North 493 567 41,000  Level FlightAware
06:44PM 38.3620 -92.9130 North 495 570 41,000  Level FlightAware
06:45PM 38.4550 -92.8970 North 494 568 41,000  Level FlightAware
06:45PM 38.5490 -92.8800 North 494 568 41,000  Level FlightAware
06:46PM 38.6530 -92.8620 North 489 563 41,000  Level FlightAware
06:47PM 38.7580 -92.8430 North 492 566 41,000  Level FlightAware
06:48PM 38.8530 -92.8260 North 493 567 41,000  Level FlightAware
06:48PM 38.9530 -92.8080 North 498 573 41,000  Level FlightAware
06:49PM 39.0250 -92.7950 North 498 573 41,000  Level FlightAware
06:50PM 39.1300 -92.7760 North 498 573 41,000  Level FlightAware
06:50PM 39.2200 -92.7580 North 500 575 41,000  Level FlightAware
06:51PM 39.3080 -92.7060 25° Northeast 516 594 41,000  Level FlightAware
06:52PM 39.3850 -92.6280 38° Northeast 518 596 41,000  Level FlightAware
06:53PM 39.4680 -92.5420 39° Northeast 519 597 41,000  Level FlightAware
06:53PM 39.5430 -92.4660 38° Northeast 518 596 41,000  Level FlightAware
06:54PM 39.6230 -92.3830 39° Northeast 520 598 41,000  Level FlightAware
06:55PM 39.7090 -92.2940 39° Northeast 522 601 41,000  Level FlightAware
06:56PM 39.8050 -92.1950 38° Northeast 521 600 41,000  Level FlightAware
06:56PM 39.8950 -92.1010 39° Northeast 524 603 41,000  Level FlightAware
06:57PM 39.9690 -92.0230 39° Northeast 525 604 41,000  Level FlightAware
06:58PM 40.0470 -91.9410 39° Northeast 526 605 41,000 -81 Level FlightAware
06:58PM 40.1070 -91.8780 39° Northeast 524 603 40,900 -701 Descending FlightAware
06:59PM 40.1940 -91.7860 39° Northeast 521 600 40,100 -1,256 Descending FlightAware
07:00PM 40.2680 -91.7080 39° Northeast 524 603 39,100 -1,537 Descending FlightAware
07:00PM 40.3460 -91.6260 39° Northeast 531 611 38,000 -2,023 Descending FlightAware
07:01PM 40.4330 -91.5330 39° Northeast 536 617 36,200 -2,850 Descending FlightAware
07:02PM 40.5050 -91.4550 39° Northeast 548 631 34,200 -2,233 Descending FlightAware
07:02PM 40.5790 -91.3260 53° Northeast 541 623 33,000 -809 Descending FlightAware
07:03PM 40.6210 -91.2040 66° East 545 627 33,000  Level FlightAware
07:04PM 40.6650 -91.0770 65° Northeast 549 632 33,000  Level FlightAware
07:05PM 40.7080 -90.9510 66° East 551 634 33,000 -279 Level FlightAware
07:05PM 40.7530 -90.8190 66° East 548 631 32,600 -940 Descending FlightAware
07:06PM 40.7930 -90.6990 66° East 542 624 31,700 -1,407 Descending FlightAware
07:07PM 40.8360 -90.5710 66° East 539 620 30,700 -1,390 Descending FlightAware
07:07PM 40.8760 -90.4530 66° East 533 613 29,800 -1,256 Descending FlightAware
07:08PM 40.9210 -90.3190 66° East 524 603 28,900 -1,256 Descending FlightAware
07:09PM 40.9600 -90.2000 67° East 518 596 28,000 -1,214 Descending FlightAware
07:09PM 41.0010 -90.0760 66° East 510 587 27,200 -1,143 Descending FlightAware
07:10PM 41.0390 -89.9600 66° East 504 580 26,400 -1,244 Descending FlightAware
07:11PM 41.0760 -89.8450 67° East 498 573 25,500 -1,186 Descending FlightAware
07:12PM 41.1170 -89.7210 66° East 474 545 24,700 -975 Descending FlightAware
07:12PM 41.1470 -89.6280 67° East 457 526 24,200 -1,286 Descending FlightAware
07:13PM 41.1910 -89.5120 63° Northeast 444 511 22,900 -1,867 Descending FlightAware
07:14PM 41.2320 -89.4100 62° Northeast 446 513 21,400 -2,154 Descending FlightAware
07:14PM 41.2670 -89.3230 62° Northeast 433 498 20,100 -2,132 Descending FlightAware
07:15PM 41.3040 -89.2310 62° Northeast 417 480 18,700 -1,786 Descending FlightAware
07:16PM 41.3260 -89.1300 74° East 416 479 17,600 -1,500 Descending FlightAware
07:16PM 41.3280 -89.0210 89° East 403 464 16,600 -1,556 Descending FlightAware
07:17PM 41.3300 -88.9240 88° East 397 457 15,500 -1,500 Descending FlightAware
07:18PM 41.3340 -88.8190 87° East 377 434 14,500 -1,525 Descending FlightAware
07:18PM 41.3440 -88.7860 68° East 372 428 14,000 -1,636 Descending FlightAware
07:18PM 41.3760 -88.7450 44° Northeast 363 418 13,300 -1,650 Descending FlightAware
07:19PM 41.3940 -88.7340 25° Northeast 359 413 12,900 -1,714 Descending FlightAware
07:19PM 41.4680 -88.7180 North 369 425 11,700 -1,417 Descending FlightAware
07:20PM 41.5140 -88.6870 27° Northeast 378 435 11,200 -609 Descending FlightAware
07:21PM 41.5560 -88.6120 53° Northeast 380 437 11,000 -146 Descending FlightAware
07:21PM 41.5950 -88.5380 55° Northeast 383 441 11,000  Level FlightAware
07:22PM 41.6410 -88.4490 55° Northeast 387 445 11,000  Level FlightAware
07:23PM 41.6860 -88.3640 55° Northeast 386 444 11,000  Level FlightAware
07:23PM 41.7270 -88.2830 56° Northeast 387 445 11,000  Level FlightAware
07:24PM 41.7700 -88.2010 55° Northeast 387 445 11,000 -286 Level FlightAware
07:25PM 41.8120 -88.1180 56° Northeast 384 442 10,600 -500 Descending FlightAware
07:25PM 41.8480 -88.0320 61° Northeast 351 404 10,300 -395 Descending FlightAware
07:26PM 41.8600 -87.9690 76° East 327 376 10,100 -750 Descending FlightAware
07:26PM 41.8650 -87.9350 79° East 315 362 9,700 -1,867 Descending FlightAware
07:27PM 41.8720 -87.8820 80° East 312 359 8,700 -2,250 Descending FlightAware
07:27PM 41.8760 -87.8590 77° East 310 357 8,200 -2,432 Descending FlightAware
07:27PM 41.8820 -87.8110 80° East 303 349 7,200 -1,800 Descending FlightAware
07:28PM 41.8840 -87.7840 84° East 304 350 7,000 -500 Descending FlightAware
07:28PM 41.8840 -87.7430 90° East 300 345 6,900 -875 Descending FlightAware
07:28PM 41.8840 -87.6950 90° East 301 346 6,300 -1,119 Descending FlightAware
07:29PM 41.8840 -87.6350 90° East 295 339 5,800 -913 Descending FlightAware
07:29PM 41.8840 -87.6140 90° East 293 337 5,600 -1,077 Descending FlightAware
07:30PM 41.8840 -87.5680 90° East 289 333 5,100 -923 Descending FlightAware
07:30PM 41.8840 -87.5420 90° East 292 336 5,000 -128 Descending FlightAware
07:30PM 41.8840 -87.4800 90° East 292 336 5,000  Level FlightAware
07:31PM 41.8830 -87.4350 92° East 275 316 5,000  Level FlightAware
07:31PM 41.8830 -87.4150 90° East 263 303 5,000  Level FlightAware
07:31PM 41.8830 -87.3770 90° East 247 284 5,000  Level FlightAware
07:32PM 41.8830 -87.3320 90° East 248 285 5,000  Level FlightAware
07:32PM 41.8970 -87.2880 67° East 240 276 5,000  Level FlightAware
07:33PM 41.9090 -87.2810 23° Northeast 233 268 5,000  Level FlightAware
07:33PM 41.9210 -87.2790 North 230 265 5,000  Level FlightAware
07:33PM 41.9320 -87.2790 360° North 229 264 5,000  Level FlightAware
07:33PM 41.9460 -87.2840 345° North 222 255 5,000  Level FlightAware
07:33PM 41.9560 -87.2960 318° Northwest 215 247 5,000  Level FlightAware
07:34PM 41.9640 -87.3150 300° West 213 245 5,000  Level FlightAware
07:34PM 41.9690 -87.3480 282° West 211 243 5,000  Level FlightAware
07:35PM 41.9690 -87.3870 270° West 202 232 5,000  Level FlightAware
07:35PM 41.9690 -87.4160 270° West 180 207 5,000  Level FlightAware
07:36PM 41.9690 -87.4480 270° West 186 214 5,000  Level FlightAware
07:36PM 41.9690 -87.4820 270° West 193 222 5,000  Level FlightAware
07:36PM 41.9690 -87.5120 270° West 194 223 5,000  Level FlightAware
07:37PM 41.9690 -87.5480 270° West 193 222 5,000 -171 Level FlightAware
07:38PM 41.9690 -87.5980 270° West 191 220 4,800 -677 Descending FlightAware
07:38PM 41.9690 -87.6250 270° West 193 222 4,300 -1,263 Descending FlightAware
07:38PM 41.9690 -87.6440 270° West 186 214 4,000 -900 Descending FlightAware
07:39PM 41.9690 -87.6690 270° West 169 194 3,700 -808 Descending FlightAware
07:39PM 41.9690 -87.6990 270° West 172 198 3,300 -818 Descending FlightAware
07:39PM 41.9690 -87.7170 270° West 173 199 3,100 -947 Descending FlightAware
07:40PM 41.9690 -87.7400 270° West 170 196 2,700 -875 Descending FlightAware
07:40PM 41.9690 -87.7650 270° West 159 183 2,400 -806 Descending FlightAware
07:41PM 41.9690 -87.8020 270° West 141 162 1,800 -824 Descending FlightAware
07:41PM 41.9690 -87.8120 270° West 143 165 1,700 -750 Descending FlightAware
07:42PM 41.9690 -87.8390 270° West 145 167 1,300 -724 Descending FlightAware
07:42PM 41.9690 -87.8640 270° West 146 168 1,000 -435 Descending FlightAware
07:43PM 41.9690 -87.8960 270° West 147 169 800 -293 Descending FlightAware